Terminal Aerodrome Forecast
Issued by NWS

Home | Current Version | Previous Version | Text Only | Print | Product List | Glossary On
Versions: 1 2 3 4 5 6 7 8 9 10 11 12 13 14 15 16 17 18 19 20 21 22 23 24 25 26 27 28
000
FTUS45 KBOU 220731 AAA
TAFAPA
TAF AMD
KAPA 220731Z 2208/2306 19012KT P6SM FEW140
     FM221200 25012KT P6SM SCT220
     FM221700 28014G26KT P6SM SCT220
     FM222100 25012G18KT P6SM SCT140 BKN220
     FM230200 22012KT P6SM SCT100 BKN150=

USA.gov is the U.S. government's official web portal to all federal, state and local government web resources and services.